sensor_id;sensor_type;location;lat;lon;timestamp;temperature;humidity
4826;DHT22;2427;50.934;6.776;2023-05-10T00:02:04;12.50;99.90
4826;DHT22;2427;50.934;6.776;2023-05-10T00:04:29;12.60;99.90
4826;DHT22;2427;50.934;6.776;2023-05-10T00:06:55;12.60;99.90
4826;DHT22;2427;50.934;6.776;2023-05-10T00:09:20;12.50;99.90
4826;DHT22;2427;50.934;6.776;2023-05-10T00:11:46;12.60;99.90
4826;DHT22;2427;50.934;6.776;2023-05-10T00:14:12;12.60;99.90
4826;DHT22;2427;50.934;6.776;2023-05-10T00:16:37;12.60;99.90
4826;DHT22;2427;50.934;6.776;2023-05-10T00:19:03;12.60;99.90
4826;DHT22;2427;50.934;6.776;2023-05-10T00:21:28;12.60;99.90
4826;DHT22;2427;50.934;6.776;2023-05-10T00:23:54;12.60;99.90
4826;DHT22;2427;50.934;6.776;2023-05-10T00:26:20;12.60;99.90
4826;DHT22;2427;50.934;6.776;2023-05-10T00:28:45;12.60;99.90
4826;DHT22;2427;50.934;6.776;2023-05-10T00:31:11;12.60;99.90
4826;DHT22;2427;50.934;6.776;2023-05-10T00:33:36;12.60;99.90
4826;DHT22;2427;50.934;6.776;2023-05-10T00:36:02;12.60;99.90
4826;DHT22;2427;50.934;6.776;2023-05-10T00:38:28;12.70;99.90
4826;DHT22;2427;50.934;6.776;2023-05-10T00:40:53;12.80;99.90
4826;DHT22;2427;50.934;6.776;2023-05-10T00:43:19;12.70;99.90
4826;DHT22;2427;50.934;6.776;2023-05-10T00:45:45;12.60;99.90
4826;DHT22;2427;50.934;6.776;2023-05-10T00:48:11;12.60;99.90
4826;DHT22;2427;50.934;6.776;2023-05-10T00:50:36;12.60;99.90
4826;DHT22;2427;50.934;6.776;2023-05-10T00:53:02;12.70;99.90
4826;DHT22;2427;50.934;6.776;2023-05-10T00:55:28;12.70;99.90
4826;DHT22;2427;50.934;6.776;2023-05-10T00:57:54;12.70;99.90
4826;DHT22;2427;50.934;6.776;2023-05-10T01:10:42;12.80;99.90
4826;DHT22;2427;50.934;6.776;2023-05-10T01:13:08;12.70;99.90
4826;DHT22;2427;50.934;6.776;2023-05-10T01:15:34;12.70;99.90
4826;DHT22;2427;50.934;6.776;2023-05-10T01:18:01;12.70;99.90
4826;DHT22;2427;50.934;6.776;2023-05-10T01:20:35;12.70;99.90
4826;DHT22;2427;50.934;6.776;2023-05-10T01:25:37;12.60;99.90
4826;DHT22;2427;50.934;6.776;2023-05-10T01:31:16;12.60;99.90
4826;DHT22;2427;50.934;6.776;2023-05-10T01:38:57;12.60;99.90
4826;DHT22;2427;50.934;6.776;2023-05-10T01:41:37;12.60;99.90
4826;DHT22;2427;50.934;6.776;2023-05-10T01:46:37;12.60;99.90
4826;DHT22;2427;50.934;6.776;2023-05-10T01:49:10;12.70;99.90
4826;DHT22;2427;50.934;6.776;2023-05-10T01:51:45;12.60;99.90
4826;DHT22;2427;50.934;6.776;2023-05-10T01:54:13;12.60;99.90
4826;DHT22;2427;50.934;6.776;2023-05-10T01:56:39;12.60;99.90
4826;DHT22;2427;50.934;6.776;2023-05-10T01:59:15;12.60;99.90
4826;DHT22;2427;50.934;6.776;2023-05-10T02:01:42;12.60;99.90
4826;DHT22;2427;50.934;6.776;2023-05-10T02:04:11;12.60;99.90
4826;DHT22;2427;50.934;6.776;2023-05-10T02:06:39;12.60;99.90
4826;DHT22;2427;50.934;6.776;2023-05-10T02:09:06;12.60;99.90
4826;DHT22;2427;50.934;6.776;2023-05-10T02:11:32;12.70;99.90
4826;DHT22;2427;50.934;6.776;2023-05-10T02:13:58;12.70;99.90
4826;DHT22;2427;50.934;6.776;2023-05-10T02:16:26;12.60;99.90
4826;DHT22;2427;50.934;6.776;2023-05-10T02:18:53;12.60;99.90
4826;DHT22;2427;50.934;6.776;2023-05-10T02:21:20;12.60;99.90
4826;DHT22;2427;50.934;6.776;2023-05-10T02:23:48;12.60;99.90
4826;DHT22;2427;50.934;6.776;2023-05-10T02:26:17;12.70;99.90
4826;DHT22;2427;50.934;6.776;2023-05-10T02:28:44;12.70;99.90
4826;DHT22;2427;50.934;6.776;2023-05-10T02:31:10;12.80;99.90
4826;DHT22;2427;50.934;6.776;2023-05-10T02:33:38;12.80;99.90
4826;DHT22;2427;50.934;6.776;2023-05-10T02:36:07;12.70;99.90
4826;DHT22;2427;50.934;6.776;2023-05-10T02:38:34;12.70;99.90
4826;DHT22;2427;50.934;6.776;2023-05-10T02:41:01;12.70;99.90
4826;DHT22;2427;50.934;6.776;2023-05-10T02:43:28;12.70;99.90
4826;DHT22;2427;50.934;6.776;2023-05-10T02:45:55;12.70;99.90
4826;DHT22;2427;50.934;6.776;2023-05-10T02:48:21;12.70;99.90
4826;DHT22;2427;50.934;6.776;2023-05-10T02:50:47;12.60;99.90
4826;DHT22;2427;50.934;6.776;2023-05-10T02:53:20;12.70;99.90
4826;DHT22;2427;50.934;6.776;2023-05-10T02:55:51;12.70;99.90
4826;DHT22;2427;50.934;6.776;2023-05-10T02:58:17;12.70;99.90
4826;DHT22;2427;50.934;6.776;2023-05-10T03:00:44;12.80;99.90
4826;DHT22;2427;50.934;6.776;2023-05-10T03:03:10;12.70;99.90
4826;DHT22;2427;50.934;6.776;2023-05-10T03:05:36;12.70;99.90
4826;DHT22;2427;50.934;6.776;2023-05-10T03:08:02;12.70;99.90
4826;DHT22;2427;50.934;6.776;2023-05-10T03:10:30;12.60;99.90
4826;DHT22;2427;50.934;6.776;2023-05-10T03:15:42;12.70;99.90
4826;DHT22;2427;50.934;6.776;2023-05-10T03:20:48;12.70;99.90
4826;DHT22;2427;50.934;6.776;2023-05-10T03:25:44;12.60;99.90
4826;DHT22;2427;50.934;6.776;2023-05-10T03:28:12;12.60;99.90
4826;DHT22;2427;50.934;6.776;2023-05-10T03:30:41;12.60;99.90
4826;DHT22;2427;50.934;6.776;2023-05-10T03:33:07;12.60;99.90
4826;DHT22;2427;50.934;6.776;2023-05-10T03:35:33;12.60;99.90
4826;DHT22;2427;50.934;6.776;2023-05-10T03:37:59;12.50;99.90
4826;DHT22;2427;50.934;6.776;2023-05-10T03:40:26;12.50;99.90
4826;DHT22;2427;50.934;6.776;2023-05-10T03:42:51;12.50;99.90
4826;DHT22;2427;50.934;6.776;2023-05-10T03:45:17;12.50;99.90
4826;DHT22;2427;50.934;6.776;2023-05-10T03:47:43;12.50;99.90
4826;DHT22;2427;50.934;6.776;2023-05-10T03:50:08;12.50;99.90
4826;DHT22;2427;50.934;6.776;2023-05-10T03:52:35;12.50;99.90
4826;DHT22;2427;50.934;6.776;2023-05-10T03:55:01;12.50;99.90
4826;DHT22;2427;50.934;6.776;2023-05-10T03:57:28;12.50;99.90
4826;DHT22;2427;50.934;6.776;2023-05-10T03:59:54;12.50;99.90
4826;DHT22;2427;50.934;6.776;2023-05-10T04:02:20;12.50;99.90
4826;DHT22;2427;50.934;6.776;2023-05-10T04:04:45;12.50;99.90
4826;DHT22;2427;50.934;6.776;2023-05-10T04:07:11;12.50;99.90
4826;DHT22;2427;50.934;6.776;2023-05-10T04:09:36;12.50;99.90
4826;DHT22;2427;50.934;6.776;2023-05-10T04:12:02;12.50;99.90
4826;DHT22;2427;50.934;6.776;2023-05-10T04:14:28;12.60;99.90
4826;DHT22;2427;50.934;6.776;2023-05-10T04:16:53;12.60;99.90
4826;DHT22;2427;50.934;6.776;2023-05-10T04:19:19;12.60;99.90
4826;DHT22;2427;50.934;6.776;2023-05-10T04:21:44;12.50;99.90
4826;DHT22;2427;50.934;6.776;2023-05-10T04:24:10;12.50;99.90
4826;DHT22;2427;50.934;6.776;2023-05-10T04:26:35;12.50;99.90
4826;DHT22;2427;50.934;6.776;2023-05-10T04:29:01;12.50;99.90
4826;DHT22;2427;50.934;6.776;2023-05-10T04:31:27;12.40;99.90
4826;DHT22;2427;50.934;6.776;2023-05-10T04:33:53;12.40;99.90
4826;DHT22;2427;50.934;6.776;2023-05-10T04:36:18;12.50;99.90
4826;DHT22;2427;50.934;6.776;2023-05-10T04:38:44;12.40;99.90
4826;DHT22;2427;50.934;6.776;2023-05-10T04:41:10;12.50;99.90
4826;DHT22;2427;50.934;6.776;2023-05-10T04:43:37;12.50;99.90
4826;DHT22;2427;50.934;6.776;2023-05-10T04:46:03;12.50;99.90
4826;DHT22;2427;50.934;6.776;2023-05-10T04:48:29;12.50;99.90
4826;DHT22;2427;50.934;6.776;2023-05-10T04:50:55;12.50;99.90
4826;DHT22;2427;50.934;6.776;2023-05-10T04:53:20;12.50;99.90
4826;DHT22;2427;50.934;6.776;2023-05-10T04:55:46;12.50;99.90
4826;DHT22;2427;50.934;6.776;2023-05-10T04:58:12;12.50;99.90
4826;DHT22;2427;50.934;6.776;2023-05-10T05:00:38;12.50;99.90
4826;DHT22;2427;50.934;6.776;2023-05-10T05:03:03;12.50;99.90
4826;DHT22;2427;50.934;6.776;2023-05-10T05:05:29;12.50;99.90
4826;DHT22;2427;50.934;6.776;2023-05-10T05:07:55;12.50;99.90
4826;DHT22;2427;50.934;6.776;2023-05-10T05:10:20;12.50;99.90
4826;DHT22;2427;50.934;6.776;2023-05-10T05:12:46;12.50;99.90
4826;DHT22;2427;50.934;6.776;2023-05-10T05:15:11;12.50;99.90
4826;DHT22;2427;50.934;6.776;2023-05-10T05:17:37;12.50;99.90
4826;DHT22;2427;50.934;6.776;2023-05-10T05:20:03;12.50;99.90
4826;DHT22;2427;50.934;6.776;2023-05-10T05:22:29;12.50;99.90
4826;DHT22;2427;50.934;6.776;2023-05-10T05:24:55;12.50;99.90
4826;DHT22;2427;50.934;6.776;2023-05-10T05:27:21;12.50;99.90
4826;DHT22;2427;50.934;6.776;2023-05-10T05:29:50;12.60;99.90
4826;DHT22;2427;50.934;6.776;2023-05-10T05:32:15;12.60;99.90
4826;DHT22;2427;50.934;6.776;2023-05-10T05:34:41;12.60;99.90
4826;DHT22;2427;50.934;6.776;2023-05-10T05:37:07;12.70;99.90
4826;DHT22;2427;50.934;6.776;2023-05-10T05:39:32;12.70;99.90
4826;DHT22;2427;50.934;6.776;2023-05-10T05:41:58;12.70;99.90
4826;DHT22;2427;50.934;6.776;2023-05-10T05:44:23;12.80;99.90
4826;DHT22;2427;50.934;6.776;2023-05-10T05:46:49;12.80;99.90
4826;DHT22;2427;50.934;6.776;2023-05-10T05:49:15;12.80;99.90
4826;DHT22;2427;50.934;6.776;2023-05-10T05:51:41;12.80;99.90
4826;DHT22;2427;50.934;6.776;2023-05-10T05:54:06;12.90;99.90
4826;DHT22;2427;50.934;6.776;2023-05-10T05:56:32;13.00;99.90
4826;DHT22;2427;50.934;6.776;2023-05-10T05:58:58;13.00;99.90
4826;DHT22;2427;50.934;6.776;2023-05-10T06:01:23;13.00;99.90
4826;DHT22;2427;50.934;6.776;2023-05-10T06:03:49;13.00;99.90
4826;DHT22;2427;50.934;6.776;2023-05-10T06:06:14;13.00;94.10
4826;DHT22;2427;50.934;6.776;2023-05-10T06:08:40;13.00;95.80
4826;DHT22;2427;50.934;6.776;2023-05-10T06:11:06;13.00;99.90
4826;DHT22;2427;50.934;6.776;2023-05-10T06:13:31;13.10;99.90
4826;DHT22;2427;50.934;6.776;2023-05-10T06:15:58;13.10;99.90
4826;DHT22;2427;50.934;6.776;2023-05-10T06:18:24;13.10;99.90
4826;DHT22;2427;50.934;6.776;2023-05-10T06:20:50;13.00;91.70
4826;DHT22;2427;50.934;6.776;2023-05-10T06:23:16;13.10;85.40
4826;DHT22;2427;50.934;6.776;2023-05-10T06:25:42;13.00;74.70
4826;DHT22;2427;50.934;6.776;2023-05-10T06:28:08;13.00;92.30
4826;DHT22;2427;50.934;6.776;2023-05-10T06:30:33;13.00;99.90
4826;DHT22;2427;50.934;6.776;2023-05-10T06:32:59;13.00;99.90
4826;DHT22;2427;50.934;6.776;2023-05-10T06:35:24;13.00;99.90
4826;DHT22;2427;50.934;6.776;2023-05-10T06:37:50;13.10;99.90
4826;DHT22;2427;50.934;6.776;2023-05-10T06:40:17;13.10;99.90
4826;DHT22;2427;50.934;6.776;2023-05-10T06:42:42;13.00;99.90
4826;DHT22;2427;50.934;6.776;2023-05-10T06:45:10;13.00;99.90
4826;DHT22;2427;50.934;6.776;2023-05-10T06:47:35;12.90;99.90
4826;DHT22;2427;50.934;6.776;2023-05-10T06:50:01;12.90;99.90
4826;DHT22;2427;50.934;6.776;2023-05-10T06:52:27;12.90;99.90
4826;DHT22;2427;50.934;6.776;2023-05-10T06:54:52;12.90;99.90
4826;DHT22;2427;50.934;6.776;2023-05-10T06:57:18;12.90;99.90
4826;DHT22;2427;50.934;6.776;2023-05-10T06:59:43;12.90;99.90
4826;DHT22;2427;50.934;6.776;2023-05-10T07:02:09;12.90;99.90
4826;DHT22;2427;50.934;6.776;2023-05-10T07:04:34;12.90;99.90
4826;DHT22;2427;50.934;6.776;2023-05-10T07:07:00;12.90;99.90
4826;DHT22;2427;50.934;6.776;2023-05-10T07:09:26;12.90;99.90
4826;DHT22;2427;50.934;6.776;2023-05-10T07:11:51;12.90;99.90
4826;DHT22;2427;50.934;6.776;2023-05-10T07:14:17;13.00;99.90
4826;DHT22;2427;50.934;6.776;2023-05-10T07:16:42;13.10;99.90
4826;DHT22;2427;50.934;6.776;2023-05-10T07:19:08;13.20;99.90
4826;DHT22;2427;50.934;6.776;2023-05-10T07:21:34;13.40;99.90
4826;DHT22;2427;50.934;6.776;2023-05-10T07:24:00;13.40;99.90
4826;DHT22;2427;50.934;6.776;2023-05-10T07:26:26;13.40;99.90
4826;DHT22;2427;50.934;6.776;2023-05-10T07:28:51;13.40;99.90
4826;DHT22;2427;50.934;6.776;2023-05-10T07:31:17;13.40;99.90
4826;DHT22;2427;50.934;6.776;2023-05-10T07:33:43;13.40;99.90
4826;DHT22;2427;50.934;6.776;2023-05-10T07:36:08;13.50;99.90
4826;DHT22;2427;50.934;6.776;2023-05-10T07:38:34;13.40;99.90
4826;DHT22;2427;50.934;6.776;2023-05-10T07:40:59;13.40;99.90
4826;DHT22;2427;50.934;6.776;2023-05-10T07:43:25;13.50;99.90
4826;DHT22;2427;50.934;6.776;2023-05-10T07:45:50;13.50;99.90
4826;DHT22;2427;50.934;6.776;2023-05-10T07:48:16;13.60;99.90
4826;DHT22;2427;50.934;6.776;2023-05-10T07:50:42;13.80;99.90
4826;DHT22;2427;50.934;6.776;2023-05-10T07:53:07;13.80;99.90
4826;DHT22;2427;50.934;6.776;2023-05-10T07:55:33;13.80;99.90
4826;DHT22;2427;50.934;6.776;2023-05-10T07:57:58;13.90;99.90
4826;DHT22;2427;50.934;6.776;2023-05-10T08:00:26;14.00;99.90
4826;DHT22;2427;50.934;6.776;2023-05-10T08:02:52;14.10;99.90
4826;DHT22;2427;50.934;6.776;2023-05-10T08:05:18;14.10;99.30
4826;DHT22;2427;50.934;6.776;2023-05-10T08:07:43;14.10;99.50
4826;DHT22;2427;50.934;6.776;2023-05-10T08:10:09;14.10;99.90
4826;DHT22;2427;50.934;6.776;2023-05-10T08:12:36;14.10;91.40
4826;DHT22;2427;50.934;6.776;2023-05-10T08:15:02;14.10;93.80
4826;DHT22;2427;50.934;6.776;2023-05-10T08:17:28;14.00;94.30
4826;DHT22;2427;50.934;6.776;2023-05-10T08:19:53;14.00;82.70
4826;DHT22;2427;50.934;6.776;2023-05-10T08:22:19;13.90;98.70
4826;DHT22;2427;50.934;6.776;2023-05-10T08:24:44;13.90;99.90
4826;DHT22;2427;50.934;6.776;2023-05-10T08:27:10;13.90;99.90
4826;DHT22;2427;50.934;6.776;2023-05-10T08:29:36;13.80;99.90
4826;DHT22;2427;50.934;6.776;2023-05-10T08:32:02;13.80;99.90
4826;DHT22;2427;50.934;6.776;2023-05-10T08:34:28;13.90;99.90
4826;DHT22;2427;50.934;6.776;2023-05-10T08:36:53;14.00;99.90
4826;DHT22;2427;50.934;6.776;2023-05-10T08:39:19;14.10;99.90
4826;DHT22;2427;50.934;6.776;2023-05-10T08:41:45;14.30;99.90
4826;DHT22;2427;50.934;6.776;2023-05-10T08:44:12;14.40;99.90
4826;DHT22;2427;50.934;6.776;2023-05-10T08:46:41;14.50;99.90
4826;DHT22;2427;50.934;6.776;2023-05-10T08:49:10;14.50;99.90
4826;DHT22;2427;50.934;6.776;2023-05-10T08:51:40;14.70;99.90
4826;DHT22;2427;50.934;6.776;2023-05-10T08:54:07;14.70;87.30
4826;DHT22;2427;50.934;6.776;2023-05-10T08:56:33;14.80;22.30
4826;DHT22;2427;50.934;6.776;2023-05-10T08:58:58;14.70;16.80
4826;DHT22;2427;50.934;6.776;2023-05-10T09:01:25;14.70;1.00
4826;DHT22;2427;50.934;6.776;2023-05-10T09:03:52;14.60;1.00
4826;DHT22;2427;50.934;6.776;2023-05-10T09:06:18;14.70;1.00
4826;DHT22;2427;50.934;6.776;2023-05-10T09:08:44;14.80;1.00
4826;DHT22;2427;50.934;6.776;2023-05-10T09:11:11;14.90;1.00
4826;DHT22;2427;50.934;6.776;2023-05-10T09:13:37;15.00;1.00
4826;DHT22;2427;50.934;6.776;2023-05-10T09:16:04;14.80;1.00
4826;DHT22;2427;50.934;6.776;2023-05-10T09:18:29;14.50;99.90
4826;DHT22;2427;50.934;6.776;2023-05-10T09:20:55;14.30;1.00
4826;DHT22;2427;50.934;6.776;2023-05-10T09:23:20;14.20;1.00
4826;DHT22;2427;50.934;6.776;2023-05-10T09:25:46;14.20;1.00
4826;DHT22;2427;50.934;6.776;2023-05-10T09:28:12;14.30;1.00
4826;DHT22;2427;50.934;6.776;2023-05-10T09:30:38;14.40;1.00
4826;DHT22;2427;50.934;6.776;2023-05-10T09:33:04;14.50;1.00
4826;DHT22;2427;50.934;6.776;2023-05-10T09:35:32;14.70;1.00
4826;DHT22;2427;50.934;6.776;2023-05-10T09:38:04;14.90;1.00
4826;DHT22;2427;50.934;6.776;2023-05-10T09:40:30;15.10;1.00
4826;DHT22;2427;50.934;6.776;2023-05-10T09:43:14;15.20;1.00
4826;DHT22;2427;50.934;6.776;2023-05-10T09:45:41;15.20;1.00
4826;DHT22;2427;50.934;6.776;2023-05-10T09:48:06;15.30;99.90
4826;DHT22;2427;50.934;6.776;2023-05-10T09:50:32;15.20;99.90
4826;DHT22;2427;50.934;6.776;2023-05-10T09:53:01;15.40;1.00
4826;DHT22;2427;50.934;6.776;2023-05-10T09:55:45;15.60;99.90
4826;DHT22;2427;50.934;6.776;2023-05-10T09:58:13;15.90;99.90
4826;DHT22;2427;50.934;6.776;2023-05-10T10:00:46;16.30;1.00
4826;DHT22;2427;50.934;6.776;2023-05-10T10:03:18;16.50;1.00
4826;DHT22;2427;50.934;6.776;2023-05-10T10:05:44;16.90;99.90
4826;DHT22;2427;50.934;6.776;2023-05-10T10:08:12;17.00;15.20
4826;DHT22;2427;50.934;6.776;2023-05-10T10:10:38;17.20;1.00
4826;DHT22;2427;50.934;6.776;2023-05-10T10:13:05;17.00;1.00
4826;DHT22;2427;50.934;6.776;2023-05-10T10:15:32;17.00;1.00
4826;DHT22;2427;50.934;6.776;2023-05-10T10:17:58;17.00;1.00
4826;DHT22;2427;50.934;6.776;2023-05-10T10:20:25;16.80;1.00
4826;DHT22;2427;50.934;6.776;2023-05-10T10:22:51;16.80;1.00
4826;DHT22;2427;50.934;6.776;2023-05-10T10:25:18;16.60;1.00
4826;DHT22;2427;50.934;6.776;2023-05-10T10:27:59;16.50;1.00
4826;DHT22;2427;50.934;6.776;2023-05-10T10:30:43;16.20;96.70
4826;DHT22;2427;50.934;6.776;2023-05-10T10:34:01;15.90;99.90
4826;DHT22;2427;50.934;6.776;2023-05-10T10:36:20;15.60;1.00
4826;DHT22;2427;50.934;6.776;2023-05-10T10:41:31;15.10;99.90
4826;DHT22;2427;50.934;6.776;2023-05-10T10:55:08;16.20;99.90
4826;DHT22;2427;50.934;6.776;2023-05-10T11:00:27;17.10;1.00
4826;DHT22;2427;50.934;6.776;2023-05-10T11:02:57;17.30;99.90
4826;DHT22;2427;50.934;6.776;2023-05-10T11:07:59;17.60;3.30
4826;DHT22;2427;50.934;6.776;2023-05-10T11:10:26;17.40;1.00
4826;DHT22;2427;50.934;6.776;2023-05-10T11:15:32;16.90;1.00
4826;DHT22;2427;50.934;6.776;2023-05-10T11:17:58;16.60;1.00
4826;DHT22;2427;50.934;6.776;2023-05-10T11:20:28;16.60;65.30
4826;DHT22;2427;50.934;6.776;2023-05-10T11:23:11;16.30;99.90
4826;DHT22;2427;50.934;6.776;2023-05-10T11:25:41;16.40;99.90
4826;DHT22;2427;50.934;6.776;2023-05-10T11:28:08;16.60;99.90
4826;DHT22;2427;50.934;6.776;2023-05-10T11:30:33;16.70;91.60
4826;DHT22;2427;50.934;6.776;2023-05-10T11:32:59;16.90;1.00
4826;DHT22;2427;50.934;6.776;2023-05-10T11:35:27;17.00;1.00
4826;DHT22;2427;50.934;6.776;2023-05-10T11:37:53;16.90;1.00
4826;DHT22;2427;50.934;6.776;2023-05-10T11:40:21;17.00;1.00
4826;DHT22;2427;50.934;6.776;2023-05-10T11:42:46;17.20;1.00
4826;DHT22;2427;50.934;6.776;2023-05-10T11:45:12;17.30;1.00
4826;DHT22;2427;50.934;6.776;2023-05-10T11:47:38;17.50;1.00
4826;DHT22;2427;50.934;6.776;2023-05-10T11:50:05;17.70;1.00
4826;DHT22;2427;50.934;6.776;2023-05-10T11:52:35;17.80;1.00
4826;DHT22;2427;50.934;6.776;2023-05-10T11:55:02;17.90;1.00
4826;DHT22;2427;50.934;6.776;2023-05-10T11:57:28;18.00;1.00
4826;DHT22;2427;50.934;6.776;2023-05-10T11:59:54;18.10;1.00
4826;DHT22;2427;50.934;6.776;2023-05-10T12:02:21;18.20;1.00
4826;DHT22;2427;50.934;6.776;2023-05-10T12:04:47;18.30;1.00
4826;DHT22;2427;50.934;6.776;2023-05-10T12:07:13;18.40;1.00
4826;DHT22;2427;50.934;6.776;2023-05-10T12:10:05;18.10;1.00
4826;DHT22;2427;50.934;6.776;2023-05-10T12:12:42;18.20;1.00
4826;DHT22;2427;50.934;6.776;2023-05-10T12:15:12;18.20;1.00
4826;DHT22;2427;50.934;6.776;2023-05-10T12:17:44;18.40;1.00
4826;DHT22;2427;50.934;6.776;2023-05-10T12:20:23;18.60;1.00
4826;DHT22;2427;50.934;6.776;2023-05-10T12:22:54;18.60;1.00
4826;DHT22;2427;50.934;6.776;2023-05-10T12:25:21;18.70;1.00
4826;DHT22;2427;50.934;6.776;2023-05-10T12:27:58;18.80;1.00
4826;DHT22;2427;50.934;6.776;2023-05-10T12:30:27;18.90;1.00
4826;DHT22;2427;50.934;6.776;2023-05-10T12:32:54;19.10;1.00
4826;DHT22;2427;50.934;6.776;2023-05-10T12:35:24;19.10;1.00
4826;DHT22;2427;50.934;6.776;2023-05-10T12:37:53;19.10;1.00
4826;DHT22;2427;50.934;6.776;2023-05-10T12:40:19;19.20;1.00
4826;DHT22;2427;50.934;6.776;2023-05-10T12:42:45;18.90;1.00
4826;DHT22;2427;50.934;6.776;2023-05-10T12:45:12;18.80;1.00
4826;DHT22;2427;50.934;6.776;2023-05-10T12:47:38;18.60;1.00
4826;DHT22;2427;50.934;6.776;2023-05-10T12:50:04;18.30;1.00
4826;DHT22;2427;50.934;6.776;2023-05-10T12:52:31;18.50;1.00
4826;DHT22;2427;50.934;6.776;2023-05-10T12:54:58;18.60;1.00
4826;DHT22;2427;50.934;6.776;2023-05-10T12:57:24;18.60;1.00
4826;DHT22;2427;50.934;6.776;2023-05-10T12:59:49;18.40;1.00
4826;DHT22;2427;50.934;6.776;2023-05-10T13:02:15;18.40;1.00
4826;DHT22;2427;50.934;6.776;2023-05-10T13:04:43;18.50;1.00
4826;DHT22;2427;50.934;6.776;2023-05-10T13:07:09;18.70;1.00
4826;DHT22;2427;50.934;6.776;2023-05-10T13:09:35;18.90;1.00
4826;DHT22;2427;50.934;6.776;2023-05-10T13:12:01;19.20;1.00
4826;DHT22;2427;50.934;6.776;2023-05-10T13:14:27;19.20;1.00
4826;DHT22;2427;50.934;6.776;2023-05-10T13:16:52;18.70;1.00
4826;DHT22;2427;50.934;6.776;2023-05-10T13:19:18;18.80;1.00
4826;DHT22;2427;50.934;6.776;2023-05-10T13:21:44;19.10;1.00
4826;DHT22;2427;50.934;6.776;2023-05-10T13:24:10;19.60;1.00
4826;DHT22;2427;50.934;6.776;2023-05-10T13:26:39;20.30;99.90
4826;DHT22;2427;50.934;6.776;2023-05-10T13:29:04;20.10;99.90
4826;DHT22;2427;50.934;6.776;2023-05-10T13:31:30;20.00;99.90
4826;DHT22;2427;50.934;6.776;2023-05-10T13:33:55;20.50;99.90
4826;DHT22;2427;50.934;6.776;2023-05-10T13:36:21;20.50;99.90
4826;DHT22;2427;50.934;6.776;2023-05-10T13:38:48;20.50;99.90
4826;DHT22;2427;50.934;6.776;2023-05-10T13:41:13;20.30;99.90
4826;DHT22;2427;50.934;6.776;2023-05-10T13:43:39;19.20;99.90
4826;DHT22;2427;50.934;6.776;2023-05-10T13:46:05;18.90;99.90
4826;DHT22;2427;50.934;6.776;2023-05-10T13:48:31;19.20;99.90
4826;DHT22;2427;50.934;6.776;2023-05-10T13:50:56;19.40;99.90
4826;DHT22;2427;50.934;6.776;2023-05-10T13:53:22;19.50;99.90
4826;DHT22;2427;50.934;6.776;2023-05-10T13:55:48;20.30;99.90
4826;DHT22;2427;50.934;6.776;2023-05-10T13:58:13;21.30;99.90
4826;DHT22;2427;50.934;6.776;2023-05-10T14:00:39;22.10;99.90
4826;DHT22;2427;50.934;6.776;2023-05-10T14:03:04;21.90;99.90
4826;DHT22;2427;50.934;6.776;2023-05-10T14:05:31;21.60;99.90
4826;DHT22;2427;50.934;6.776;2023-05-10T14:07:57;21.50;99.90
4826;DHT22;2427;50.934;6.776;2023-05-10T14:10:22;20.70;99.90
4826;DHT22;2427;50.934;6.776;2023-05-10T14:12:49;21.00;99.90
4826;DHT22;2427;50.934;6.776;2023-05-10T14:15:14;21.80;99.90
4826;DHT22;2427;50.934;6.776;2023-05-10T14:17:40;22.40;99.90
4826;DHT22;2427;50.934;6.776;2023-05-10T14:20:06;22.30;99.90
4826;DHT22;2427;50.934;6.776;2023-05-10T14:22:32;21.90;99.90
4826;DHT22;2427;50.934;6.776;2023-05-10T14:24:58;21.80;99.90
4826;DHT22;2427;50.934;6.776;2023-05-10T14:27:23;21.70;99.90
4826;DHT22;2427;50.934;6.776;2023-05-10T14:29:49;21.80;99.90
4826;DHT22;2427;50.934;6.776;2023-05-10T14:32:15;21.90;99.90
4826;DHT22;2427;50.934;6.776;2023-05-10T14:34:40;22.50;99.90
4826;DHT22;2427;50.934;6.776;2023-05-10T14:37:06;22.50;99.90
4826;DHT22;2427;50.934;6.776;2023-05-10T14:39:32;21.90;99.90
4826;DHT22;2427;50.934;6.776;2023-05-10T14:41:58;22.30;99.90
4826;DHT22;2427;50.934;6.776;2023-05-10T14:44:24;22.70;99.90
4826;DHT22;2427;50.934;6.776;2023-05-10T14:46:49;23.00;99.90
4826;DHT22;2427;50.934;6.776;2023-05-10T14:49:15;24.80;99.90
4826;DHT22;2427;50.934;6.776;2023-05-10T14:51:40;25.00;99.90
4826;DHT22;2427;50.934;6.776;2023-05-10T14:54:06;24.80;99.90
4826;DHT22;2427;50.934;6.776;2023-05-10T14:56:32;25.70;99.90
4826;DHT22;2427;50.934;6.776;2023-05-10T14:58:57;25.20;99.90
4826;DHT22;2427;50.934;6.776;2023-05-10T15:01:24;23.90;99.90
4826;DHT22;2427;50.934;6.776;2023-05-10T15:03:49;23.30;99.90
4826;DHT22;2427;50.934;6.776;2023-05-10T15:06:16;22.70;99.90
4826;DHT22;2427;50.934;6.776;2023-05-10T15:08:41;22.30;99.90
4826;DHT22;2427;50.934;6.776;2023-05-10T15:11:07;22.20;99.90
4826;DHT22;2427;50.934;6.776;2023-05-10T15:13:33;21.80;99.90
4826;DHT22;2427;50.934;6.776;2023-05-10T15:15:58;21.10;99.90
4826;DHT22;2427;50.934;6.776;2023-05-10T15:18:24;20.70;99.90
4826;DHT22;2427;50.934;6.776;2023-05-10T15:20:49;20.40;99.90
4826;DHT22;2427;50.934;6.776;2023-05-10T15:23:15;20.40;99.90
4826;DHT22;2427;50.934;6.776;2023-05-10T15:25:40;20.40;99.90
4826;DHT22;2427;50.934;6.776;2023-05-10T15:28:06;20.20;99.90
4826;DHT22;2427;50.934;6.776;2023-05-10T15:30:32;19.70;99.90
4826;DHT22;2427;50.934;6.776;2023-05-10T15:32:57;19.80;99.90
4826;DHT22;2427;50.934;6.776;2023-05-10T15:35:23;19.80;99.90
4826;DHT22;2427;50.934;6.776;2023-05-10T15:37:49;19.40;99.90
4826;DHT22;2427;50.934;6.776;2023-05-10T15:40:14;19.00;99.90
4826;DHT22;2427;50.934;6.776;2023-05-10T15:42:40;18.70;99.90
4826;DHT22;2427;50.934;6.776;2023-05-10T15:45:06;18.50;99.90
4826;DHT22;2427;50.934;6.776;2023-05-10T15:47:32;18.30;99.90
4826;DHT22;2427;50.934;6.776;2023-05-10T15:49:58;18.20;99.90
4826;DHT22;2427;50.934;6.776;2023-05-10T15:52:23;18.30;99.90
4826;DHT22;2427;50.934;6.776;2023-05-10T15:54:50;18.30;99.90
4826;DHT22;2427;50.934;6.776;2023-05-10T15:57:16;18.10;99.90
4826;DHT22;2427;50.934;6.776;2023-05-10T15:59:41;18.20;99.90
4826;DHT22;2427;50.934;6.776;2023-05-10T16:02:08;18.50;99.90
4826;DHT22;2427;50.934;6.776;2023-05-10T16:04:35;18.50;99.90
4826;DHT22;2427;50.934;6.776;2023-05-10T16:07:01;18.30;99.90
4826;DHT22;2427;50.934;6.776;2023-05-10T16:09:27;18.10;99.90
4826;DHT22;2427;50.934;6.776;2023-05-10T16:11:52;18.00;99.90
4826;DHT22;2427;50.934;6.776;2023-05-10T16:14:18;17.80;99.90
4826;DHT22;2427;50.934;6.776;2023-05-10T16:16:45;17.80;1.00
4826;DHT22;2427;50.934;6.776;2023-05-10T16:19:11;17.90;99.90
4826;DHT22;2427;50.934;6.776;2023-05-10T16:21:37;17.90;99.90
4826;DHT22;2427;50.934;6.776;2023-05-10T16:24:03;18.10;99.90
4826;DHT22;2427;50.934;6.776;2023-05-10T16:26:29;18.20;99.90
4826;DHT22;2427;50.934;6.776;2023-05-10T16:28:55;18.10;99.90
4826;DHT22;2427;50.934;6.776;2023-05-10T16:31:21;18.40;99.90
4826;DHT22;2427;50.934;6.776;2023-05-10T16:33:46;18.40;99.90
4826;DHT22;2427;50.934;6.776;2023-05-10T16:36:12;18.40;99.90
4826;DHT22;2427;50.934;6.776;2023-05-10T16:38:37;18.80;99.90
4826;DHT22;2427;50.934;6.776;2023-05-10T16:41:03;18.90;99.90
4826;DHT22;2427;50.934;6.776;2023-05-10T16:43:29;18.90;99.90
4826;DHT22;2427;50.934;6.776;2023-05-10T16:45:56;18.40;99.90
4826;DHT22;2427;50.934;6.776;2023-05-10T16:48:22;18.20;99.90
4826;DHT22;2427;50.934;6.776;2023-05-10T16:50:48;18.10;99.90
4826;DHT22;2427;50.934;6.776;2023-05-10T16:53:14;18.00;1.00
4826;DHT22;2427;50.934;6.776;2023-05-10T16:55:40;17.90;1.00